sensor_id;sensor_type;location;lat;lon;timestamp;temperature;humidity
11647;DHT22;5880;52.342;9.662;2023-03-01T00:00:41;2.40;47.10
11647;DHT22;5880;52.342;9.662;2023-03-01T00:03:06;2.30;47.10
11647;DHT22;5880;52.342;9.662;2023-03-01T00:05:32;2.30;47.00
11647;DHT22;5880;52.342;9.662;2023-03-01T00:07:58;2.30;47.00
11647;DHT22;5880;52.342;9.662;2023-03-01T00:10:24;2.20;47.00
11647;DHT22;5880;52.342;9.662;2023-03-01T00:12:51;2.30;47.10
11647;DHT22;5880;52.342;9.662;2023-03-01T00:15:17;2.20;47.10
11647;DHT22;5880;52.342;9.662;2023-03-01T00:17:42;2.20;47.20
11647;DHT22;5880;52.342;9.662;2023-03-01T00:20:09;2.20;47.20
11647;DHT22;5880;52.342;9.662;2023-03-01T00:22:36;2.20;47.40
11647;DHT22;5880;52.342;9.662;2023-03-01T00:25:02;2.20;47.40
11647;DHT22;5880;52.342;9.662;2023-03-01T00:27:29;2.20;47.40
11647;DHT22;5880;52.342;9.662;2023-03-01T00:29:54;2.20;47.50
11647;DHT22;5880;52.342;9.662;2023-03-01T00:32:20;2.10;47.50
11647;DHT22;5880;52.342;9.662;2023-03-01T00:34:46;2.10;47.50
11647;DHT22;5880;52.342;9.662;2023-03-01T00:37:22;2.10;47.50
11647;DHT22;5880;52.342;9.662;2023-03-01T00:39:49;2.10;47.60
11647;DHT22;5880;52.342;9.662;2023-03-01T00:42:15;2.00;47.40
11647;DHT22;5880;52.342;9.662;2023-03-01T00:44:42;2.20;47.60
11647;DHT22;5880;52.342;9.662;2023-03-01T00:47:07;2.00;47.50
11647;DHT22;5880;52.342;9.662;2023-03-01T00:49:33;2.00;47.50
11647;DHT22;5880;52.342;9.662;2023-03-01T00:51:59;2.00;48.40
11647;DHT22;5880;52.342;9.662;2023-03-01T00:54:25;2.00;47.50
11647;DHT22;5880;52.342;9.662;2023-03-01T00:56:51;2.00;47.70
11647;DHT22;5880;52.342;9.662;2023-03-01T00:59:16;1.90;47.70
11647;DHT22;5880;52.342;9.662;2023-03-01T01:01:42;1.90;47.70
11647;DHT22;5880;52.342;9.662;2023-03-01T01:04:10;1.90;47.90
11647;DHT22;5880;52.342;9.662;2023-03-01T01:06:43;1.90;48.00
11647;DHT22;5880;52.342;9.662;2023-03-01T01:09:13;1.90;48.10
11647;DHT22;5880;52.342;9.662;2023-03-01T01:11:50;1.80;47.70
11647;DHT22;5880;52.342;9.662;2023-03-01T01:14:17;1.90;48.00
11647;DHT22;5880;52.342;9.662;2023-03-01T01:16:44;1.80;47.70
11647;DHT22;5880;52.342;9.662;2023-03-01T01:19:11;1.80;47.70
11647;DHT22;5880;52.342;9.662;2023-03-01T01:21:37;1.70;47.90
11647;DHT22;5880;52.342;9.662;2023-03-01T01:24:04;1.70;47.90
11647;DHT22;5880;52.342;9.662;2023-03-01T01:26:31;1.70;48.70
11647;DHT22;5880;52.342;9.662;2023-03-01T01:28:59;1.70;48.00
11647;DHT22;5880;52.342;9.662;2023-03-01T01:31:26;1.70;48.00
11647;DHT22;5880;52.342;9.662;2023-03-01T01:33:54;1.70;48.00
11647;DHT22;5880;52.342;9.662;2023-03-01T01:36:20;1.70;47.90
11647;DHT22;5880;52.342;9.662;2023-03-01T01:38:46;1.70;48.00
11647;DHT22;5880;52.342;9.662;2023-03-01T01:41:12;1.60;48.00
11647;DHT22;5880;52.342;9.662;2023-03-01T01:43:45;1.60;48.00
11647;DHT22;5880;52.342;9.662;2023-03-01T01:46:32;1.60;48.30
11647;DHT22;5880;52.342;9.662;2023-03-01T01:49:02;1.60;48.80
11647;DHT22;5880;52.342;9.662;2023-03-01T01:51:35;1.60;48.20
11647;DHT22;5880;52.342;9.662;2023-03-01T01:54:33;1.50;48.20
11647;DHT22;5880;52.342;9.662;2023-03-01T01:57:09;1.50;48.90
11647;DHT22;5880;52.342;9.662;2023-03-01T01:59:43;1.50;48.30
11647;DHT22;5880;52.342;9.662;2023-03-01T02:02:12;1.50;48.40
11647;DHT22;5880;52.342;9.662;2023-03-01T02:04:39;1.50;48.30
11647;DHT22;5880;52.342;9.662;2023-03-01T02:07:16;1.50;48.40
11647;DHT22;5880;52.342;9.662;2023-03-01T02:09:47;1.00;48.30
11647;DHT22;5880;52.342;9.662;2023-03-01T02:12:16;1.40;48.40
11647;DHT22;5880;52.342;9.662;2023-03-01T02:14:46;1.40;48.30
11647;DHT22;5880;52.342;9.662;2023-03-01T02:17:15;1.40;48.30
11647;DHT22;5880;52.342;9.662;2023-03-01T02:19:59;1.40;48.50
11647;DHT22;5880;52.342;9.662;2023-03-01T02:22:37;1.40;48.90
11647;DHT22;5880;52.342;9.662;2023-03-01T02:27:58;1.30;48.70
11647;DHT22;5880;52.342;9.662;2023-03-01T02:30:42;1.30;48.80
11647;DHT22;5880;52.342;9.662;2023-03-01T02:33:29;1.30;48.40
11647;DHT22;5880;52.342;9.662;2023-03-01T02:35:59;1.30;48.40
11647;DHT22;5880;52.342;9.662;2023-03-01T02:38:27;1.20;48.40
11647;DHT22;5880;52.342;9.662;2023-03-01T02:40:54;1.20;48.40
11647;DHT22;5880;52.342;9.662;2023-03-01T02:43:26;1.20;48.50
11647;DHT22;5880;52.342;9.662;2023-03-01T02:46:03;1.10;48.70
11647;DHT22;5880;52.342;9.662;2023-03-01T02:48:56;1.20;48.80
11647;DHT22;5880;52.342;9.662;2023-03-01T02:57:19;1.10;49.10
11647;DHT22;5880;52.342;9.662;2023-03-01T02:59:48;1.10;48.50
11647;DHT22;5880;52.342;9.662;2023-03-01T03:02:27;1.10;48.60
11647;DHT22;5880;52.342;9.662;2023-03-01T03:05:10;1.10;49.30
11647;DHT22;5880;52.342;9.662;2023-03-01T03:07:41;1.10;48.70
11647;DHT22;5880;52.342;9.662;2023-03-01T03:10:14;1.10;48.80
11647;DHT22;5880;52.342;9.662;2023-03-01T03:12:52;1.00;48.70
11647;DHT22;5880;52.342;9.662;2023-03-01T03:15:20;1.00;48.80
11647;DHT22;5880;52.342;9.662;2023-03-01T03:17:47;1.10;48.90
11647;DHT22;5880;52.342;9.662;2023-03-01T03:20:16;1.00;48.90
11647;DHT22;5880;52.342;9.662;2023-03-01T03:22:49;1.00;49.10
11647;DHT22;5880;52.342;9.662;2023-03-01T03:25:19;1.00;48.90
11647;DHT22;5880;52.342;9.662;2023-03-01T03:27:48;1.00;49.10
11647;DHT22;5880;52.342;9.662;2023-03-01T03:30:17;1.00;48.80
11647;DHT22;5880;52.342;9.662;2023-03-01T03:32:46;0.90;48.80
11647;DHT22;5880;52.342;9.662;2023-03-01T03:35:46;0.90;48.70
11647;DHT22;5880;52.342;9.662;2023-03-01T03:38:15;0.80;49.30
11647;DHT22;5880;52.342;9.662;2023-03-01T03:40:46;0.80;48.70
11647;DHT22;5880;52.342;9.662;2023-03-01T03:43:19;0.80;48.80
11647;DHT22;5880;52.342;9.662;2023-03-01T03:45:49;0.80;49.00
11647;DHT22;5880;52.342;9.662;2023-03-01T03:48:16;0.80;49.00
11647;DHT22;5880;52.342;9.662;2023-03-01T03:50:48;0.80;49.00
11647;DHT22;5880;52.342;9.662;2023-03-01T03:53:15;0.80;49.30
11647;DHT22;5880;52.342;9.662;2023-03-01T03:55:41;0.80;49.00
11647;DHT22;5880;52.342;9.662;2023-03-01T03:58:08;0.70;49.00
11647;DHT22;5880;52.342;9.662;2023-03-01T04:00:40;0.70;49.30
11647;DHT22;5880;52.342;9.662;2023-03-01T04:03:08;0.70;49.30
11647;DHT22;5880;52.342;9.662;2023-03-01T04:05:34;0.70;49.30
11647;DHT22;5880;52.342;9.662;2023-03-01T04:08:01;0.70;49.40
11647;DHT22;5880;52.342;9.662;2023-03-01T04:10:30;0.70;49.40
11647;DHT22;5880;52.342;9.662;2023-03-01T04:12:57;0.70;49.40
11647;DHT22;5880;52.342;9.662;2023-03-01T04:15:24;0.70;49.30
11647;DHT22;5880;52.342;9.662;2023-03-01T04:17:53;0.70;49.40
11647;DHT22;5880;52.342;9.662;2023-03-01T04:20:23;0.70;49.50
11647;DHT22;5880;52.342;9.662;2023-03-01T04:25:46;0.60;49.40
11647;DHT22;5880;52.342;9.662;2023-03-01T04:28:22;0.60;49.90
11647;DHT22;5880;52.342;9.662;2023-03-01T04:31:04;0.60;49.60
11647;DHT22;5880;52.342;9.662;2023-03-01T04:33:42;0.60;49.60
11647;DHT22;5880;52.342;9.662;2023-03-01T04:36:10;0.60;49.70
11647;DHT22;5880;52.342;9.662;2023-03-01T04:38:38;0.60;49.70
11647;DHT22;5880;52.342;9.662;2023-03-01T04:41:07;0.60;49.70
11647;DHT22;5880;52.342;9.662;2023-03-01T04:43:35;0.60;49.70
11647;DHT22;5880;52.342;9.662;2023-03-01T04:46:09;0.60;49.60
11647;DHT22;5880;52.342;9.662;2023-03-01T04:48:38;0.50;49.90
11647;DHT22;5880;52.342;9.662;2023-03-01T04:51:06;0.60;49.50
11647;DHT22;5880;52.342;9.662;2023-03-01T04:53:33;0.60;49.50
11647;DHT22;5880;52.342;9.662;2023-03-01T04:56:01;0.50;49.50
11647;DHT22;5880;52.342;9.662;2023-03-01T04:58:28;0.50;49.60
11647;DHT22;5880;52.342;9.662;2023-03-01T05:00:54;0.50;49.60
11647;DHT22;5880;52.342;9.662;2023-03-01T05:03:21;0.50;49.80
11647;DHT22;5880;52.342;9.662;2023-03-01T05:05:50;1.30;50.10
11647;DHT22;5880;52.342;9.662;2023-03-01T05:08:17;0.50;49.90
11647;DHT22;5880;52.342;9.662;2023-03-01T05:10:51;0.50;49.70
11647;DHT22;5880;52.342;9.662;2023-03-01T05:13:19;0.50;50.10
11647;DHT22;5880;52.342;9.662;2023-03-01T05:18:27;0.40;50.20
11647;DHT22;5880;52.342;9.662;2023-03-01T05:21:11;0.40;49.90
11647;DHT22;5880;52.342;9.662;2023-03-01T05:23:41;0.40;49.80
11647;DHT22;5880;52.342;9.662;2023-03-01T05:26:07;0.40;49.50
11647;DHT22;5880;52.342;9.662;2023-03-01T05:28:34;0.40;49.70
11647;DHT22;5880;52.342;9.662;2023-03-01T05:31:00;0.40;49.70
11647;DHT22;5880;52.342;9.662;2023-03-01T05:33:27;0.40;49.80
11647;DHT22;5880;52.342;9.662;2023-03-01T05:35:53;0.40;49.90
11647;DHT22;5880;52.342;9.662;2023-03-01T05:38:20;0.40;50.00
11647;DHT22;5880;52.342;9.662;2023-03-01T05:40:47;0.40;50.00
11647;DHT22;5880;52.342;9.662;2023-03-01T05:43:15;0.40;49.90
11647;DHT22;5880;52.342;9.662;2023-03-01T05:45:42;0.40;49.90
11647;DHT22;5880;52.342;9.662;2023-03-01T05:48:10;0.30;49.90
11647;DHT22;5880;52.342;9.662;2023-03-01T05:50:38;0.40;50.80
11647;DHT22;5880;52.342;9.662;2023-03-01T05:53:14;0.40;50.00
11647;DHT22;5880;52.342;9.662;2023-03-01T05:55:46;0.30;50.30
11647;DHT22;5880;52.342;9.662;2023-03-01T05:58:15;0.30;50.00
11647;DHT22;5880;52.342;9.662;2023-03-01T06:00:44;0.30;50.20
11647;DHT22;5880;52.342;9.662;2023-03-01T06:03:12;0.30;50.10
11647;DHT22;5880;52.342;9.662;2023-03-01T06:05:40;0.30;50.10
11647;DHT22;5880;52.342;9.662;2023-03-01T06:08:07;0.20;50.00
11647;DHT22;5880;52.342;9.662;2023-03-01T06:10:35;0.30;50.10
11647;DHT22;5880;52.342;9.662;2023-03-01T06:13:00;0.30;50.10
11647;DHT22;5880;52.342;9.662;2023-03-01T06:15:26;0.20;50.10
11647;DHT22;5880;52.342;9.662;2023-03-01T06:17:53;0.20;50.10
11647;DHT22;5880;52.342;9.662;2023-03-01T06:20:23;0.20;50.30
11647;DHT22;5880;52.342;9.662;2023-03-01T06:22:51;0.20;50.10
11647;DHT22;5880;52.342;9.662;2023-03-01T06:25:20;0.20;50.00
11647;DHT22;5880;52.342;9.662;2023-03-01T06:27:49;0.20;50.20
11647;DHT22;5880;52.342;9.662;2023-03-01T06:30:18;0.20;50.00
11647;DHT22;5880;52.342;9.662;2023-03-01T06:32:46;0.10;50.20
11647;DHT22;5880;52.342;9.662;2023-03-01T06:35:13;0.10;50.20
11647;DHT22;5880;52.342;9.662;2023-03-01T06:37:40;0.10;50.30
11647;DHT22;5880;52.342;9.662;2023-03-01T06:40:07;0.10;50.30
11647;DHT22;5880;52.342;9.662;2023-03-01T06:42:38;0.10;50.50
11647;DHT22;5880;52.342;9.662;2023-03-01T06:45:06;0.10;50.80
11647;DHT22;5880;52.342;9.662;2023-03-01T06:47:33;0.10;50.60
11647;DHT22;5880;52.342;9.662;2023-03-01T06:50:00;0.10;50.70
11647;DHT22;5880;52.342;9.662;2023-03-01T06:52:27;0.10;50.90
11647;DHT22;5880;52.342;9.662;2023-03-01T06:54:52;0.20;50.90
11647;DHT22;5880;52.342;9.662;2023-03-01T06:57:18;0.20;51.20
11647;DHT22;5880;52.342;9.662;2023-03-01T06:59:44;0.30;51.40
11647;DHT22;5880;52.342;9.662;2023-03-01T07:02:11;0.30;51.60
11647;DHT22;5880;52.342;9.662;2023-03-01T07:04:37;0.40;51.70
11647;DHT22;5880;52.342;9.662;2023-03-01T07:07:04;0.40;51.60
11647;DHT22;5880;52.342;9.662;2023-03-01T07:09:29;0.50;51.90
11647;DHT22;5880;52.342;9.662;2023-03-01T07:11:56;0.60;51.80
11647;DHT22;5880;52.342;9.662;2023-03-01T07:14:22;0.60;52.00
11647;DHT22;5880;52.342;9.662;2023-03-01T07:16:49;0.60;52.00
11647;DHT22;5880;52.342;9.662;2023-03-01T07:19:15;0.70;52.20
11647;DHT22;5880;52.342;9.662;2023-03-01T07:21:41;0.80;52.40
11647;DHT22;5880;52.342;9.662;2023-03-01T07:24:07;0.90;52.50
11647;DHT22;5880;52.342;9.662;2023-03-01T07:26:33;0.90;52.60
11647;DHT22;5880;52.342;9.662;2023-03-01T07:29:00;1.00;52.90
11647;DHT22;5880;52.342;9.662;2023-03-01T07:31:26;1.20;54.90
11647;DHT22;5880;52.342;9.662;2023-03-01T07:33:55;1.40;57.60
11647;DHT22;5880;52.342;9.662;2023-03-01T07:36:21;1.90;60.20
11647;DHT22;5880;52.342;9.662;2023-03-01T07:38:48;2.40;62.30
11647;DHT22;5880;52.342;9.662;2023-03-01T07:41:14;3.10;63.80
11647;DHT22;5880;52.342;9.662;2023-03-01T07:43:39;3.60;64.60
11647;DHT22;5880;52.342;9.662;2023-03-01T07:46:05;4.60;65.20
11647;DHT22;5880;52.342;9.662;2023-03-01T07:48:32;5.30;65.10
11647;DHT22;5880;52.342;9.662;2023-03-01T07:50:59;6.00;63.30
11647;DHT22;5880;52.342;9.662;2023-03-01T07:53:26;6.60;59.70
11647;DHT22;5880;52.342;9.662;2023-03-01T07:58:38;7.10;52.80
11647;DHT22;5880;52.342;9.662;2023-03-01T08:01:06;7.10;51.00
11647;DHT22;5880;52.342;9.662;2023-03-01T08:03:34;7.00;49.80
11647;DHT22;5880;52.342;9.662;2023-03-01T08:06:04;7.00;49.00
11647;DHT22;5880;52.342;9.662;2023-03-01T08:08:32;6.70;48.60
11647;DHT22;5880;52.342;9.662;2023-03-01T08:10:59;6.50;48.10
11647;DHT22;5880;52.342;9.662;2023-03-01T08:13:26;6.30;47.90
11647;DHT22;5880;52.342;9.662;2023-03-01T08:15:52;6.20;48.10
11647;DHT22;5880;52.342;9.662;2023-03-01T08:18:19;6.00;48.30
11647;DHT22;5880;52.342;9.662;2023-03-01T08:20:46;5.80;48.40
11647;DHT22;5880;52.342;9.662;2023-03-01T08:23:12;5.70;49.30
11647;DHT22;5880;52.342;9.662;2023-03-01T08:25:38;5.50;48.70
11647;DHT22;5880;52.342;9.662;2023-03-01T08:28:04;5.40;48.70
11647;DHT22;5880;52.342;9.662;2023-03-01T08:30:31;5.30;48.90
11647;DHT22;5880;52.342;9.662;2023-03-01T08:32:57;5.30;49.00
11647;DHT22;5880;52.342;9.662;2023-03-01T08:35:23;5.30;48.50
11647;DHT22;5880;52.342;9.662;2023-03-01T08:37:49;5.00;48.40
11647;DHT22;5880;52.342;9.662;2023-03-01T08:40:14;5.10;48.40
11647;DHT22;5880;52.342;9.662;2023-03-01T08:42:41;4.80;48.50
11647;DHT22;5880;52.342;9.662;2023-03-01T08:45:09;4.70;48.70
11647;DHT22;5880;52.342;9.662;2023-03-01T08:47:35;4.70;49.00
11647;DHT22;5880;52.342;9.662;2023-03-01T08:50:01;4.60;49.10
11647;DHT22;5880;52.342;9.662;2023-03-01T08:52:27;4.60;49.30
11647;DHT22;5880;52.342;9.662;2023-03-01T08:54:55;4.50;49.40
11647;DHT22;5880;52.342;9.662;2023-03-01T08:57:21;4.60;49.50
11647;DHT22;5880;52.342;9.662;2023-03-01T08:59:47;4.60;49.60
11647;DHT22;5880;52.342;9.662;2023-03-01T09:02:18;4.60;49.40
11647;DHT22;5880;52.342;9.662;2023-03-01T09:04:44;4.80;49.60
11647;DHT22;5880;52.342;9.662;2023-03-01T09:07:10;4.60;49.80
11647;DHT22;5880;52.342;9.662;2023-03-01T09:09:36;4.80;50.00
11647;DHT22;5880;52.342;9.662;2023-03-01T09:12:03;4.70;50.00
11647;DHT22;5880;52.342;9.662;2023-03-01T09:14:29;4.70;50.10
11647;DHT22;5880;52.342;9.662;2023-03-01T09:16:54;4.80;50.10
11647;DHT22;5880;52.342;9.662;2023-03-01T09:19:20;4.90;50.80
11647;DHT22;5880;52.342;9.662;2023-03-01T09:21:46;5.00;52.20
11647;DHT22;5880;52.342;9.662;2023-03-01T09:24:21;5.20;52.80
11647;DHT22;5880;52.342;9.662;2023-03-01T09:26:49;5.60;54.00
11647;DHT22;5880;52.342;9.662;2023-03-01T09:29:17;6.00;54.40
11647;DHT22;5880;52.342;9.662;2023-03-01T09:31:43;6.50;53.10
11647;DHT22;5880;52.342;9.662;2023-03-01T09:34:09;7.00;51.50
11647;DHT22;5880;52.342;9.662;2023-03-01T09:36:35;7.50;53.30
11647;DHT22;5880;52.342;9.662;2023-03-01T09:39:02;8.00;51.40
11647;DHT22;5880;52.342;9.662;2023-03-01T09:41:44;8.40;49.90
11647;DHT22;5880;52.342;9.662;2023-03-01T09:44:41;9.00;50.90
11647;DHT22;5880;52.342;9.662;2023-03-01T09:47:19;9.60;46.60
11647;DHT22;5880;52.342;9.662;2023-03-01T09:53:05;10.40;45.20
11647;DHT22;5880;52.342;9.662;2023-03-01T09:56:02;10.90;45.00
11647;DHT22;5880;52.342;9.662;2023-03-01T09:58:59;11.30;41.70
11647;DHT22;5880;52.342;9.662;2023-03-01T10:02:03;11.60;36.70
11647;DHT22;5880;52.342;9.662;2023-03-01T10:04:49;12.00;39.90
11647;DHT22;5880;52.342;9.662;2023-03-01T10:07:25;12.20;40.70
11647;DHT22;5880;52.342;9.662;2023-03-01T10:09:58;12.40;39.20
11647;DHT22;5880;52.342;9.662;2023-03-01T10:12:30;12.50;38.30
11647;DHT22;5880;52.342;9.662;2023-03-01T10:15:11;12.70;38.90
11647;DHT22;5880;52.342;9.662;2023-03-01T10:17:57;12.80;38.80
11647;DHT22;5880;52.342;9.662;2023-03-01T10:20:57;12.90;33.80
11647;DHT22;5880;52.342;9.662;2023-03-01T10:23:25;13.00;36.30
11647;DHT22;5880;52.342;9.662;2023-03-01T10:29:03;13.10;38.20
11647;DHT22;5880;52.342;9.662;2023-03-01T10:31:40;13.10;32.40
11647;DHT22;5880;52.342;9.662;2023-03-01T10:34:21;13.20;34.60
11647;DHT22;5880;52.342;9.662;2023-03-01T10:37:01;13.20;35.70
11647;DHT22;5880;52.342;9.662;2023-03-01T10:39:35;13.20;36.70
11647;DHT22;5880;52.342;9.662;2023-03-01T10:42:05;13.20;35.60
11647;DHT22;5880;52.342;9.662;2023-03-01T10:47:41;13.20;36.20
11647;DHT22;5880;52.342;9.662;2023-03-01T10:50:19;13.00;32.60
11647;DHT22;5880;52.342;9.662;2023-03-01T10:53:04;12.90;32.50
11647;DHT22;5880;52.342;9.662;2023-03-01T10:55:37;12.50;29.80
11647;DHT22;5880;52.342;9.662;2023-03-01T10:58:21;12.20;30.00
11647;DHT22;5880;52.342;9.662;2023-03-01T11:03:42;11.40;30.10
11647;DHT22;5880;52.342;9.662;2023-03-01T11:08:41;10.70;32.00
11647;DHT22;5880;52.342;9.662;2023-03-01T11:11:16;10.40;33.30
11647;DHT22;5880;52.342;9.662;2023-03-01T11:13:55;10.10;32.20
11647;DHT22;5880;52.342;9.662;2023-03-01T11:16:42;9.80;32.60
11647;DHT22;5880;52.342;9.662;2023-03-01T11:21:59;9.40;33.20
11647;DHT22;5880;52.342;9.662;2023-03-01T11:27:04;9.00;34.50
11647;DHT22;5880;52.342;9.662;2023-03-01T11:29:40;8.90;35.00
11647;DHT22;5880;52.342;9.662;2023-03-01T11:32:13;8.80;35.10
11647;DHT22;5880;52.342;9.662;2023-03-01T11:34:44;8.80;34.50
11647;DHT22;5880;52.342;9.662;2023-03-01T11:37:32;8.70;34.20
11647;DHT22;5880;52.342;9.662;2023-03-01T11:43:00;8.70;36.00
11647;DHT22;5880;52.342;9.662;2023-03-01T11:48:46;8.60;35.90
11647;DHT22;5880;52.342;9.662;2023-03-01T11:54:27;8.60;35.50
11647;DHT22;5880;52.342;9.662;2023-03-01T11:57:18;8.60;35.90
11647;DHT22;5880;52.342;9.662;2023-03-01T12:00:37;8.60;36.10
11647;DHT22;5880;52.342;9.662;2023-03-01T12:11:06;8.70;35.80
11647;DHT22;5880;52.342;9.662;2023-03-01T12:13:53;8.70;36.70
11647;DHT22;5880;52.342;9.662;2023-03-01T12:17:06;8.70;34.60
11647;DHT22;5880;52.342;9.662;2023-03-01T12:19:42;8.70;36.20
11647;DHT22;5880;52.342;9.662;2023-03-01T12:25:57;8.80;35.80
11647;DHT22;5880;52.342;9.662;2023-03-01T12:28:54;8.70;32.60
11647;DHT22;5880;52.342;9.662;2023-03-01T12:34:29;8.70;32.70
11647;DHT22;5880;52.342;9.662;2023-03-01T12:37:34;8.70;33.50
11647;DHT22;5880;52.342;9.662;2023-03-01T12:40:13;8.70;33.40
11647;DHT22;5880;52.342;9.662;2023-03-01T12:46:00;8.70;34.40
11647;DHT22;5880;52.342;9.662;2023-03-01T12:48:47;8.70;35.30
11647;DHT22;5880;52.342;9.662;2023-03-01T12:51:24;8.70;36.00
11647;DHT22;5880;52.342;9.662;2023-03-01T12:53:55;8.80;35.50
11647;DHT22;5880;52.342;9.662;2023-03-01T12:56:30;8.80;35.00
11647;DHT22;5880;52.342;9.662;2023-03-01T13:02:12;8.90;34.80
11647;DHT22;5880;52.342;9.662;2023-03-01T13:05:13;8.90;35.30
11647;DHT22;5880;52.342;9.662;2023-03-01T13:10:58;9.00;35.60
11647;DHT22;5880;52.342;9.662;2023-03-01T13:13:28;9.00;36.00
11647;DHT22;5880;52.342;9.662;2023-03-01T13:15:55;9.10;36.40
11647;DHT22;5880;52.342;9.662;2023-03-01T13:20:53;9.10;35.90
11647;DHT22;5880;52.342;9.662;2023-03-01T13:31:11;9.20;34.20
11647;DHT22;5880;52.342;9.662;2023-03-01T13:33:56;9.20;34.70
11647;DHT22;5880;52.342;9.662;2023-03-01T13:47:06;9.20;32.00
11647;DHT22;5880;52.342;9.662;2023-03-01T13:49:49;9.20;32.80
11647;DHT22;5880;52.342;9.662;2023-03-01T13:52:38;9.20;32.20
11647;DHT22;5880;52.342;9.662;2023-03-01T13:55:32;9.10;31.60
11647;DHT22;5880;52.342;9.662;2023-03-01T13:58:14;9.10;31.60
11647;DHT22;5880;52.342;9.662;2023-03-01T14:00:40;9.20;32.70
11647;DHT22;5880;52.342;9.662;2023-03-01T14:03:20;9.20;33.00
11647;DHT22;5880;52.342;9.662;2023-03-01T14:06:02;9.20;32.70
11647;DHT22;5880;52.342;9.662;2023-03-01T14:08:34;9.10;32.10
11647;DHT22;5880;52.342;9.662;2023-03-01T14:14:29;9.20;32.20
11647;DHT22;5880;52.342;9.662;2023-03-01T14:20:07;9.20;33.60
11647;DHT22;5880;52.342;9.662;2023-03-01T14:22:40;9.30;34.20
11647;DHT22;5880;52.342;9.662;2023-03-01T14:28:29;9.30;34.20
11647;DHT22;5880;52.342;9.662;2023-03-01T14:30:58;9.40;34.00
11647;DHT22;5880;52.342;9.662;2023-03-01T14:33:33;9.30;35.10
11647;DHT22;5880;52.342;9.662;2023-03-01T14:36:06;9.40;35.20
11647;DHT22;5880;52.342;9.662;2023-03-01T14:38:42;9.40;34.40
11647;DHT22;5880;52.342;9.662;2023-03-01T14:41:16;9.40;33.50
11647;DHT22;5880;52.342;9.662;2023-03-01T14:43:50;9.40;34.10
11647;DHT22;5880;52.342;9.662;2023-03-01T14:46:30;9.40;34.90
11647;DHT22;5880;52.342;9.662;2023-03-01T14:51:40;9.40;34.80
11647;DHT22;5880;52.342;9.662;2023-03-01T14:54:24;9.40;34.30
11647;DHT22;5880;52.342;9.662;2023-03-01T14:57:00;9.40;34.40
11647;DHT22;5880;52.342;9.662;2023-03-01T14:59:27;9.40;35.20
11647;DHT22;5880;52.342;9.662;2023-03-01T15:01:56;9.50;35.30
11647;DHT22;5880;52.342;9.662;2023-03-01T15:04:23;9.50;35.60
11647;DHT22;5880;52.342;9.662;2023-03-01T15:06:52;9.50;35.60
11647;DHT22;5880;52.342;9.662;2023-03-01T15:09:19;9.50;34.00
11647;DHT22;5880;52.342;9.662;2023-03-01T15:11:46;9.50;33.60
11647;DHT22;5880;52.342;9.662;2023-03-01T15:14:41;9.60;33.40
11647;DHT22;5880;52.342;9.662;2023-03-01T15:17:33;9.60;33.10
11647;DHT22;5880;52.342;9.662;2023-03-01T15:20:06;9.50;31.20
11647;DHT22;5880;52.342;9.662;2023-03-01T15:22:44;9.60;33.10
11647;DHT22;5880;52.342;9.662;2023-03-01T15:25:18;9.50;33.00
11647;DHT22;5880;52.342;9.662;2023-03-01T15:27:48;9.50;32.60
11647;DHT22;5880;52.342;9.662;2023-03-01T15:30:25;9.50;33.20
11647;DHT22;5880;52.342;9.662;2023-03-01T15:35:51;9.60;33.10
11647;DHT22;5880;52.342;9.662;2023-03-01T15:38:36;9.50;32.50
11647;DHT22;5880;52.342;9.662;2023-03-01T15:41:33;9.50;32.10
11647;DHT22;5880;52.342;9.662;2023-03-01T15:44:27;9.50;32.50
11647;DHT22;5880;52.342;9.662;2023-03-01T15:46:54;9.50;32.90
11647;DHT22;5880;52.342;9.662;2023-03-01T15:49:41;9.50;32.30
11647;DHT22;5880;52.342;9.662;2023-03-01T15:52:25;9.40;31.60
11647;DHT22;5880;52.342;9.662;2023-03-01T15:55:04;9.40;31.90
11647;DHT22;5880;52.342;9.662;2023-03-01T15:57:32;9.40;31.50
11647;DHT22;5880;52.342;9.662;2023-03-01T15:59:57;9.40;31.80
11647;DHT22;5880;52.342;9.662;2023-03-01T16:02:24;9.30;31.40
11647;DHT22;5880;52.342;9.662;2023-03-01T16:04:50;9.40;32.40
11647;DHT22;5880;52.342;9.662;2023-03-01T16:07:16;9.40;32.50
11647;DHT22;5880;52.342;9.662;2023-03-01T16:09:42;9.30;31.90
11647;DHT22;5880;52.342;9.662;2023-03-01T16:12:14;9.30;32.50
11647;DHT22;5880;52.342;9.662;2023-03-01T16:14:41;9.30;32.20
11647;DHT22;5880;52.342;9.662;2023-03-01T16:17:07;9.30;32.50
11647;DHT22;5880;52.342;9.662;2023-03-01T16:19:35;9.20;32.20
11647;DHT22;5880;52.342;9.662;2023-03-01T16:22:03;9.20;32.30
11647;DHT22;5880;52.342;9.662;2023-03-01T16:24:29;9.20;33.20
11647;DHT22;5880;52.342;9.662;2023-03-01T16:26:55;9.20;33.10
11647;DHT22;5880;52.342;9.662;2023-03-01T16:29:20;9.20;33.10
11647;DHT22;5880;52.342;9.662;2023-03-01T16:31:46;9.10;32.50
11647;DHT22;5880;52.342;9.662;2023-03-01T16:34:13;9.10;33.20
11647;DHT22;5880;52.342;9.662;2023-03-01T16:36:38;9.10;33.50
11647;DHT22;5880;52.342;9.662;2023-03-01T16:39:04;9.10;33.70
11647;DHT22;5880;52.342;9.662;2023-03-01T16:41:30;9.00;33.70
11647;DHT22;5880;52.342;9.662;2023-03-01T16:43:56;9.00;33.90
11647;DHT22;5880;52.342;9.662;2023-03-01T16:46:24;8.90;34.00
11647;DHT22;5880;52.342;9.662;2023-03-01T16:48:51;8.90;34.00
11647;DHT22;5880;52.342;9.662;2023-03-01T16:51:18;8.80;34.10
11647;DHT22;5880;52.342;9.662;2023-03-01T16:53:44;8.80;34.10
11647;DHT22;5880;52.342;9.662;2023-03-01T16:56:11;8.70;34.20
11647;DHT22;5880;52.342;9.662;2023-03-01T16:58:39;8.60;34.20
11647;DHT22;5880;52.342;9.662;2023-03-01T17:01:10;8.50;34.20
11647;DHT22;5880;52.342;9.662;2023-03-01T17:03:41;8.50;34.30
11647;DHT22;5880;52.342;9.662;2023-03-01T17:06:11;8.40;34.40
11647;DHT22;5880;52.342;9.662;2023-03-01T17:08:39;8.40;34.40
11647;DHT22;5880;52.342;9.662;2023-03-01T17:11:13;8.30;34.50
11647;DHT22;5880;52.342;9.662;2023-03-01T17:13:44;8.30;34.50
11647;DHT22;5880;52.342;9.662;2023-03-01T17:16:13;8.20;34.50
11647;DHT22;5880;52.342;9.662;2023-03-01T17:18:42;8.20;34.60
11647;DHT22;5880;52.342;9.662;2023-03-01T17:21:08;8.10;34.60
11647;DHT22;5880;52.342;9.662;2023-03-01T17:23:36;8.10;34.70
11647;DHT22;5880;52.342;9.662;2023-03-01T17:26:03;8.00;35.30
11647;DHT22;5880;52.342;9.662;2023-03-01T17:28:30;7.90;34.80
11647;DHT22;5880;52.342;9.662;2023-03-01T17:30:58;7.90;35.00
11647;DHT22;5880;52.342;9.662;2023-03-01T17:33:25;7.80;35.20
11647;DHT22;5880;52.342;9.662;2023-03-01T17:35:51;7.70;35.40
11647;DHT22;5880;52.342;9.662;2023-03-01T17:38:17;7.60;35.50
11647;DHT22;5880;52.342;9.662;2023-03-01T17:40:44;7.50;35.60
11647;DHT22;5880;52.342;9.662;2023-03-01T17:43:11;7.40;35.70
11647;DHT22;5880;52.342;9.662;2023-03-01T17:45:38;7.40;36.00
11647;DHT22;5880;52.342;9.662;2023-03-01T17:48:06;7.20;35.90
11647;DHT22;5880;52.342;9.662;2023-03-01T17:50:32;7.10;35.90
11647;DHT22;5880;52.342;9.662;2023-03-01T17:53:02;7.10;36.00
11647;DHT22;5880;52.342;9.662;2023-03-01T17:55:31;7.00;36.00
11647;DHT22;5880;52.342;9.662;2023-03-01T17:57:57;6.80;36.00
11647;DHT22;5880;52.342;9.662;2023-03-01T18:00:23;6.70;36.10
11647;DHT22;5880;52.342;9.662;2023-03-01T18:02:49;6.70;36.30
11647;DHT22;5880;52.342;9.662;2023-03-01T18:05:15;6.60;36.40
11647;DHT22;5880;52.342;9.662;2023-03-01T18:07:40;6.50;36.50
11647;DHT22;5880;52.342;9.662;2023-03-01T18:10:06;6.40;36.70
11647;DHT22;5880;52.342;9.662;2023-03-01T18:12:32;6.40;36.80